createdAt,value
2022-10-10T00:01:16.862Z,101935.41
2022-10-10T00:03:45.224Z,101936.28
2022-10-10T00:06:15.492Z,101937.81
2022-10-10T00:08:43.977Z,101938.38
2022-10-10T00:11:12.713Z,101932.31
2022-10-10T00:13:41.352Z,101934.53
2022-10-10T00:16:09.422Z,101934.94
2022-10-10T00:18:37.611Z,101937.81
2022-10-10T00:21:05.961Z,101924.91
2022-10-10T00:23:35.428Z,101932.84
2022-10-10T00:26:08.598Z,101926.13
2022-10-10T00:28:38.346Z,101917.72
2022-10-10T00:31:06.753Z,101920.59
2022-10-10T00:33:34.559Z,101912.56
2022-10-10T00:36:02.424Z,101912.81
2022-10-10T00:38:30.267Z,101912.06
2022-10-10T00:40:59.768Z,101899.72
2022-10-10T00:43:28.490Z,101899.34
2022-10-10T00:45:56.506Z,101892.09
2022-10-10T00:48:26.225Z,101898.41
2022-10-10T00:50:58.196Z,101893.41
2022-10-10T00:53:29.676Z,101900.03
2022-10-10T00:56:00.576Z,101888.06
2022-10-10T00:58:28.468Z,101896.31
2022-10-10T01:00:56.625Z,101890.25
2022-10-10T01:03:24.888Z,101890.31
2022-10-10T01:05:53.072Z,101881.66
2022-10-10T01:08:22.049Z,101883.09
2022-10-10T01:11:04.924Z,101882.13
2022-10-10T01:13:40.406Z,101878.22
2022-10-10T01:16:15.107Z,101877.06
2022-10-10T01:18:55.003Z,101866.47
2022-10-10T01:21:30.900Z,101868.94
2022-10-10T01:24:21.774Z,101870.81
2022-10-10T01:27:30.986Z,101859.38
2022-10-10T01:30:04.987Z,101853.66
2022-10-10T01:32:35.246Z,101859.00
2022-10-10T01:35:32.264Z,101857.03
2022-10-10T01:38:08.979Z,101848.53
2022-10-10T01:40:45.130Z,101851.66
2022-10-10T01:43:13.878Z,101847.50
2022-10-10T01:45:46.685Z,101849.19
2022-10-10T01:48:15.192Z,101842.31
2022-10-10T01:50:58.505Z,101843.72
2022-10-10T01:53:36.955Z,101845.31
2022-10-10T01:56:11.076Z,101842.56
2022-10-10T01:58:58.124Z,101834.41
2022-10-10T02:01:35.611Z,101831.31
2022-10-10T02:04:10.482Z,101828.44
2022-10-10T02:06:43.061Z,101833.88
2022-10-10T02:09:16.359Z,101821.94
2022-10-10T02:11:44.233Z,101825.00
2022-10-10T02:14:16.991Z,101826.28
2022-10-10T02:16:48.629Z,101815.47
2022-10-10T02:19:20.798Z,101814.63
2022-10-10T02:21:49.818Z,101809.53
2022-10-10T02:24:20.786Z,101805.63
2022-10-10T02:26:53.538Z,101811.53
2022-10-10T02:29:26.311Z,101805.13
2022-10-10T02:32:01.214Z,101798.34
2022-10-10T02:34:33.665Z,101799.97
2022-10-10T02:37:05.785Z,101795.81
2022-10-10T02:39:37.494Z,101792.75
2022-10-10T02:42:07.859Z,101791.25
2022-10-10T02:44:36.974Z,101792.59
2022-10-10T02:47:06.762Z,101791.03
2022-10-10T02:49:36.098Z,101788.66
2022-10-10T02:52:04.900Z,101780.16
2022-10-10T02:54:33.040Z,101784.03
2022-10-10T02:57:00.888Z,101778.81
2022-10-10T02:59:28.715Z,101772.78
2022-10-10T03:01:56.528Z,101771.56
2022-10-10T03:04:25.733Z,101768.31
2022-10-10T03:06:53.796Z,101758.06
2022-10-10T03:09:21.643Z,101763.16
2022-10-10T03:11:49.471Z,101756.75
2022-10-10T03:14:17.352Z,101753.97
2022-10-10T03:16:45.134Z,101751.59
2022-10-10T03:19:13.223Z,101742.41
2022-10-10T03:21:42.380Z,101741.19
2022-10-10T03:24:10.282Z,101743.28
2022-10-10T03:26:38.089Z,101748.28
2022-10-10T03:29:06.242Z,101742.50
2022-10-10T03:31:34.056Z,101738.25
2022-10-10T03:34:01.851Z,101736.78
2022-10-10T03:36:30.860Z,101737.19
2022-10-10T03:39:00.051Z,101726.47
2022-10-10T03:41:28.190Z,101727.44
2022-10-10T03:43:56.194Z,101720.09
2022-10-10T03:46:24.053Z,101717.13
2022-10-10T03:48:51.951Z,101716.56
2022-10-10T03:51:20.163Z,101719.09
2022-10-10T03:53:48.011Z,101713.63
2022-10-10T03:56:17.203Z,101716.09
2022-10-10T03:58:45.073Z,101710.75
2022-10-10T04:01:13.101Z,101708.03
2022-10-10T04:03:41.107Z,101700.50
2022-10-10T04:06:09.479Z,101693.41
2022-10-10T04:08:37.300Z,101692.69
2022-10-10T04:11:05.218Z,101690.94
2022-10-10T04:13:34.386Z,101694.19
2022-10-10T04:16:02.212Z,101691.31
2022-10-10T04:18:29.990Z,101675.06
2022-10-10T04:20:57.807Z,101676.97
2022-10-10T04:23:25.615Z,101670.78
2022-10-10T04:25:54.086Z,101667.06
2022-10-10T04:28:21.942Z,101675.47
2022-10-10T04:30:51.152Z,101668.22
2022-10-10T04:33:19.167Z,101664.38
2022-10-10T04:35:50.068Z,101665.25
2022-10-10T04:38:19.778Z,101648.56
2022-10-10T04:40:49.413Z,101652.28
2022-10-10T04:43:17.218Z,101640.53
2022-10-10T04:45:45.060Z,101645.13
2022-10-10T04:48:14.470Z,101643.75
2022-10-10T04:50:42.327Z,101638.63
2022-10-10T04:53:10.305Z,101632.00
2022-10-10T04:55:38.147Z,101625.22
2022-10-10T04:58:05.958Z,101621.78
2022-10-10T05:00:33.806Z,101619.41
2022-10-10T05:03:02.021Z,101613.88
2022-10-10T05:05:31.559Z,101605.47
2022-10-10T05:07:59.361Z,101597.66
2022-10-10T05:10:27.495Z,101597.91
2022-10-10T05:12:55.451Z,101595.16
2022-10-10T05:15:23.283Z,101597.91
2022-10-10T05:17:51.206Z,101597.13
2022-10-10T05:20:19.552Z,101585.50
2022-10-10T05:22:48.887Z,101594.38
2022-10-10T05:25:16.988Z,101582.38
2022-10-10T05:27:44.814Z,101578.09
2022-10-10T05:30:13.733Z,101579.88
2022-10-10T05:32:41.605Z,101579.22
2022-10-10T05:35:10.361Z,101575.28
2022-10-10T05:37:38.210Z,101572.25
2022-10-10T05:40:08.880Z,101576.56
2022-10-10T05:42:36.664Z,101577.63
2022-10-10T05:45:04.703Z,101575.22
2022-10-10T05:47:32.516Z,101581.25
2022-10-10T05:50:00.379Z,101568.47
2022-10-10T05:52:29.587Z,101563.50
2022-10-10T05:54:57.375Z,101574.47
2022-10-10T05:57:26.677Z,101571.59
2022-10-10T05:59:54.939Z,101574.84
2022-10-10T06:02:22.782Z,101564.38
2022-10-10T06:04:50.615Z,101568.50
2022-10-10T06:07:18.475Z,101568.09
2022-10-10T06:09:46.447Z,101570.38
2022-10-10T06:12:14.343Z,101562.47
2022-10-10T06:14:43.762Z,101561.34
2022-10-10T06:17:11.589Z,101560.53
2022-10-10T06:19:39.403Z,101567.72
2022-10-10T06:22:07.233Z,101569.72
2022-10-10T06:24:35.230Z,101570.94
2022-10-10T06:27:03.060Z,101565.69
2022-10-10T06:29:30.869Z,101565.88
2022-10-10T06:32:00.055Z,101572.56
2022-10-10T06:34:28.045Z,101564.38
2022-10-10T06:36:55.881Z,101568.19
2022-10-10T06:39:23.711Z,101564.97
2022-10-10T06:41:51.508Z,101569.91
2022-10-10T06:44:20.318Z,101569.88
2022-10-10T06:46:48.180Z,101567.31
2022-10-10T06:49:17.385Z,101567.44
2022-10-10T06:51:45.174Z,101561.13
2022-10-10T06:54:13.028Z,101556.16
2022-10-10T06:56:40.829Z,101559.13
2022-10-10T06:59:08.716Z,101555.22
2022-10-10T07:01:36.642Z,101554.81
2022-10-10T07:04:05.356Z,101544.38
2022-10-10T07:06:35.137Z,101549.06
2022-10-10T07:09:03.289Z,101548.78
2022-10-10T07:11:31.479Z,101535.22
2022-10-10T07:13:59.771Z,101541.31
2022-10-10T07:16:27.859Z,101541.78
2022-10-10T07:18:55.756Z,101530.38
2022-10-10T07:21:23.593Z,101531.44
2022-10-10T07:23:52.812Z,101529.78
2022-10-10T07:26:22.341Z,101535.56
2022-10-10T07:28:50.580Z,101533.75
2022-10-10T07:31:18.433Z,101531.47
2022-10-10T07:33:50.502Z,101529.22
2022-10-10T07:36:19.709Z,101536.53
2022-10-10T07:38:52.931Z,101532.91
2022-10-10T07:41:21.563Z,101535.47
2022-10-10T07:43:49.765Z,101531.84
2022-10-10T07:46:20.420Z,101530.13
2022-10-10T07:48:49.169Z,101524.63
2022-10-10T07:51:17.736Z,101524.19
2022-10-10T07:53:45.562Z,101529.03
2022-10-10T07:56:14.729Z,101527.84
2022-10-10T07:58:42.752Z,101520.69
2022-10-10T08:01:12.411Z,101531.25
2022-10-10T08:03:40.662Z,101531.00
2022-10-10T08:06:10.698Z,101531.88
2022-10-10T08:08:48.564Z,101526.75
2022-10-10T08:11:22.341Z,101527.06
2022-10-10T08:13:51.278Z,101517.06
2022-10-10T08:16:19.735Z,101521.03
2022-10-10T08:18:47.661Z,101516.28
2022-10-10T08:21:18.634Z,101517.97
2022-10-10T08:23:47.305Z,101509.75
2022-10-10T08:26:17.694Z,101516.19
2022-10-10T08:28:48.692Z,101517.56
2022-10-10T08:31:19.048Z,101509.84
2022-10-10T08:33:48.705Z,101504.94
2022-10-10T08:36:19.421Z,101499.13
2022-10-10T08:38:47.761Z,101503.59
2022-10-10T08:41:25.496Z,101491.56
2022-10-10T08:43:57.769Z,101490.47
2022-10-10T08:46:36.420Z,101493.81
2022-10-10T08:49:14.329Z,101497.34
2022-10-10T08:51:48.081Z,101493.78
2022-10-10T08:54:18.643Z,101486.00
2022-10-10T08:56:47.146Z,101484.34
2022-10-10T08:59:24.197Z,101472.53
2022-10-10T09:02:17.616Z,101471.69
2022-10-10T09:04:45.123Z,101480.34
2022-10-10T09:07:27.652Z,101468.03
2022-10-10T09:10:04.347Z,101459.50
2022-10-10T09:12:43.114Z,101458.34
2022-10-10T09:15:20.301Z,101452.97
2022-10-10T09:17:55.191Z,101449.13
2022-10-10T09:20:36.244Z,101448.41
2022-10-10T09:23:09.764Z,101451.34
2022-10-10T09:25:45.142Z,101447.75
2022-10-10T09:28:17.733Z,101442.66
2022-10-10T09:30:52.067Z,101444.50
2022-10-10T09:33:28.137Z,101431.25
2022-10-10T09:35:59.765Z,101422.06
2022-10-10T09:38:40.019Z,101433.19
2022-10-10T09:41:16.061Z,101419.25
2022-10-10T09:43:44.229Z,101416.13
2022-10-10T09:46:13.456Z,101428.03
2022-10-10T09:48:42.843Z,101412.66
2022-10-10T09:51:15.522Z,101413.81
2022-10-10T09:53:44.262Z,101412.22
2022-10-10T09:56:19.437Z,101396.06
2022-10-10T09:58:49.475Z,101396.41
2022-10-10T10:01:21.950Z,101397.78
2022-10-10T10:04:23.486Z,101408.22
2022-10-10T10:07:06.351Z,101413.47
2022-10-10T10:09:34.752Z,101420.84
2022-10-10T10:12:03.052Z,101417.09
2022-10-10T10:14:36.107Z,101416.91
2022-10-10T10:17:09.979Z,101409.59
2022-10-10T10:19:39.886Z,101410.88
2022-10-10T10:22:28.173Z,101404.03
2022-10-10T10:24:56.252Z,101415.88
2022-10-10T10:27:26.044Z,101408.50
2022-10-10T10:29:56.047Z,101403.56
2022-10-10T10:32:40.681Z,101396.84
2022-10-10T10:35:18.163Z,101384.19
2022-10-10T10:37:59.417Z,101372.63
2022-10-10T10:40:34.392Z,101374.59
2022-10-10T10:43:20.086Z,101378.53
2022-10-10T10:45:59.592Z,101376.22
2022-10-10T10:48:34.916Z,101369.78
2022-10-10T10:51:14.316Z,101361.22
2022-10-10T10:53:50.321Z,101361.31
2022-10-10T10:56:27.243Z,101356.44
2022-10-10T10:59:39.071Z,101358.22
2022-10-10T11:02:06.202Z,101344.31
2022-10-10T11:05:20.938Z,101343.22
2022-10-10T11:08:02.876Z,101346.94
2022-10-10T11:10:39.859Z,101341.66
2022-10-10T11:13:20.538Z,101341.19
2022-10-10T11:16:06.144Z,101340.91
2022-10-10T11:18:39.865Z,101344.16
2022-10-10T11:21:12.445Z,101334.50
2022-10-10T11:23:44.599Z,101337.38
2022-10-10T11:26:19.302Z,101324.91
2022-10-10T11:28:52.324Z,101330.56
2022-10-10T11:31:25.032Z,101316.47
2022-10-10T11:33:57.670Z,101314.50
2022-10-10T11:36:31.105Z,101308.16
2022-10-10T11:39:05.409Z,101316.97
2022-10-10T11:41:36.534Z,101318.53
2022-10-10T11:44:10.113Z,101308.16
2022-10-10T11:46:43.002Z,101303.00
2022-10-10T11:49:21.041Z,101302.81
2022-10-10T11:52:31.815Z,101296.41
2022-10-10T11:54:58.792Z,101298.03
2022-10-10T11:57:32.720Z,101295.66
2022-10-10T12:00:05.647Z,101292.28
2022-10-10T12:02:36.292Z,101300.94
2022-10-10T12:05:06.098Z,101288.53
2022-10-10T12:07:42.413Z,101292.97
2022-10-10T12:10:18.526Z,101286.03
2022-10-10T12:12:49.833Z,101282.66
2022-10-10T12:15:28.981Z,101287.47
2022-10-10T12:17:57.963Z,101281.88
2022-10-10T12:20:34.999Z,101282.34
2022-10-10T12:23:22.369Z,101274.88
2022-10-10T12:25:50.183Z,101283.81
2022-10-10T12:28:27.529Z,101277.53
2022-10-10T12:31:20.719Z,101275.91
2022-10-10T12:34:04.631Z,101284.81
2022-10-10T12:37:11.023Z,101286.84
2022-10-10T12:40:29.247Z,101277.75
2022-10-10T12:43:23.520Z,101286.69
2022-10-10T12:46:19.439Z,101281.94
2022-10-10T12:49:15.010Z,101273.25
2022-10-10T12:51:44.195Z,101281.41
2022-10-10T12:54:25.472Z,101292.22
2022-10-10T12:57:07.688Z,101284.38
2022-10-10T12:59:37.878Z,101276.16
2022-10-10T13:02:12.071Z,101271.09
2022-10-10T13:04:43.760Z,101279.81
2022-10-10T13:07:16.925Z,101277.00
2022-10-10T13:09:48.041Z,101270.69
2022-10-10T13:12:28.616Z,101266.34
2022-10-10T13:14:57.769Z,101269.44
2022-10-10T13:17:28.843Z,101264.91
2022-10-10T13:20:02.301Z,101251.78
2022-10-10T13:22:32.151Z,101256.59
2022-10-10T13:25:01.582Z,101262.16
2022-10-10T13:27:34.946Z,101257.03
2022-10-10T13:30:02.658Z,101249.91
2022-10-10T13:32:34.352Z,101239.69
2022-10-10T13:35:05.457Z,101248.28
2022-10-10T13:37:33.779Z,101252.31
2022-10-10T13:40:02.591Z,101257.16
2022-10-10T13:42:35.309Z,101244.63
2022-10-10T13:45:29.418Z,101249.06
2022-10-10T13:48:12.843Z,101244.38
2022-10-10T13:50:56.753Z,101243.75
2022-10-10T13:53:32.269Z,101244.03
2022-10-10T13:56:05.757Z,101240.91
2022-10-10T13:58:42.777Z,101238.72
2022-10-10T14:01:25.817Z,101241.28
2022-10-10T14:03:57.150Z,101239.22
2022-10-10T14:06:27.698Z,101234.78
2022-10-10T14:08:57.957Z,101231.16
2022-10-10T14:11:29.040Z,101233.22
2022-10-10T14:14:05.615Z,101230.63
2022-10-10T14:16:33.530Z,101233.47
2022-10-10T14:19:01.450Z,101231.09
2022-10-10T14:21:29.268Z,101239.50
2022-10-10T14:23:57.174Z,101228.66
2022-10-10T14:26:25.027Z,101233.34
2022-10-10T14:28:53.026Z,101224.00
2022-10-10T14:31:22.282Z,101218.69
2022-10-10T14:33:50.171Z,101224.00
2022-10-10T14:36:17.999Z,101222.13
2022-10-10T14:38:46.050Z,101223.81
2022-10-10T14:41:14.196Z,101217.66
2022-10-10T14:43:45.754Z,101213.34
2022-10-10T14:46:18.899Z,101207.84
2022-10-10T14:48:48.434Z,101207.50
2022-10-10T14:51:34.942Z,101200.84
2022-10-10T14:54:12.013Z,101213.06
2022-10-10T14:57:09.440Z,101204.47
2022-10-10T14:59:46.480Z,101200.97
2022-10-10T15:02:19.033Z,101204.09
2022-10-10T15:04:48.529Z,101198.69
2022-10-10T15:07:16.949Z,101203.78
2022-10-10T15:10:19.222Z,101201.38
2022-10-10T15:12:33.611Z,101204.75
2022-10-10T15:15:01.473Z,101209.28
2022-10-10T15:17:30.494Z,101211.75
2022-10-10T15:19:59.870Z,101217.13
2022-10-10T15:22:28.674Z,101211.75
2022-10-10T15:24:56.543Z,101215.25
2022-10-10T15:27:25.081Z,101209.91
2022-10-10T15:29:52.915Z,101225.47
2022-10-10T15:32:21.018Z,101220.88
2022-10-10T15:34:49.016Z,101227.38
2022-10-10T15:37:19.073Z,101225.53
2022-10-10T15:39:48.061Z,101237.59
2022-10-10T15:42:22.166Z,101241.81
2022-10-10T15:44:51.690Z,101226.94
2022-10-10T15:47:20.576Z,101241.88
2022-10-10T15:49:48.722Z,101244.19
2022-10-10T15:52:22.922Z,101242.09
2022-10-10T15:54:51.002Z,101250.38
2022-10-10T15:57:19.216Z,101251.53
2022-10-10T15:59:47.708Z,101247.69
2022-10-10T16:02:16.092Z,101241.88
2022-10-10T16:04:44.580Z,101243.41
2022-10-10T16:07:25.805Z,101241.19
2022-10-10T16:09:58.867Z,101244.91
2022-10-10T16:12:26.798Z,101242.44
2022-10-10T16:14:54.619Z,101242.22
2022-10-10T16:17:23.804Z,101240.72
2022-10-10T16:19:52.330Z,101246.00
2022-10-10T16:22:20.533Z,101248.25
2022-10-10T16:25:17.284Z,101250.31
2022-10-10T16:27:38.612Z,101245.84
2022-10-10T16:30:07.665Z,101237.94
2022-10-10T16:32:41.058Z,101236.88
2022-10-10T16:35:10.652Z,101238.03
2022-10-10T16:37:38.623Z,101239.53
2022-10-10T16:40:07.743Z,101241.50
2022-10-10T16:42:35.991Z,101248.16
2022-10-10T16:45:06.250Z,101237.94
2022-10-10T16:47:34.078Z,101246.34
2022-10-10T16:50:01.972Z,101244.63
2022-10-10T16:52:29.807Z,101247.66
2022-10-10T16:54:57.840Z,101248.88
2022-10-10T16:57:25.654Z,101244.03
2022-10-10T16:59:53.479Z,101248.84
2022-10-10T17:02:24.520Z,101252.25
2022-10-10T17:04:53.266Z,101252.34
2022-10-10T17:07:21.136Z,101254.06
2022-10-10T17:09:48.964Z,101259.75
2022-10-10T17:12:16.876Z,101256.19
2022-10-10T17:14:44.694Z,101257.38
2022-10-10T17:17:13.594Z,101256.81
2022-10-10T17:19:43.150Z,101260.09
2022-10-10T17:22:10.991Z,101272.72
2022-10-10T17:24:38.807Z,101270.19
2022-10-10T17:27:06.657Z,101272.78
2022-10-10T17:29:34.453Z,101262.38
2022-10-10T17:32:06.327Z,101265.38
2022-10-10T17:34:35.091Z,101268.22
2022-10-10T17:37:05.037Z,101269.66
2022-10-10T17:39:32.918Z,101261.69
2022-10-10T17:42:01.020Z,101268.78
2022-10-10T17:44:28.967Z,101274.06
2022-10-10T17:46:56.950Z,101267.56
2022-10-10T17:49:24.890Z,101266.81
2022-10-10T17:51:52.956Z,101270.94
2022-10-10T17:54:22.139Z,101266.84
2022-10-10T17:56:49.892Z,101267.13
2022-10-10T17:59:17.766Z,101276.50
2022-10-10T18:01:45.581Z,101268.41
2022-10-10T18:04:16.348Z,101276.94
2022-10-10T18:06:44.273Z,101273.25
2022-10-10T18:09:12.079Z,101278.09
2022-10-10T18:11:41.545Z,101270.41
2022-10-10T18:14:09.375Z,101274.13
2022-10-10T18:16:37.226Z,101285.34
2022-10-10T18:19:07.292Z,101286.03
2022-10-10T18:21:35.918Z,101280.63
2022-10-10T18:24:03.860Z,101288.72
2022-10-10T18:26:31.997Z,101291.59
2022-10-10T18:29:01.372Z,101293.72
2022-10-10T18:31:31.074Z,101299.13
2022-10-10T18:33:58.928Z,101298.72
2022-10-10T18:36:29.746Z,101305.06
2022-10-10T18:39:00.166Z,101300.38
2022-10-10T18:41:33.840Z,101309.72
2022-10-10T18:44:04.655Z,101321.25
2022-10-10T18:46:33.283Z,101313.81
2022-10-10T18:49:01.818Z,101316.13
2022-10-10T18:51:30.574Z,101319.66
2022-10-10T18:54:02.169Z,101316.50
2022-10-10T18:56:31.924Z,101315.34
2022-10-10T18:59:02.175Z,101325.34
2022-10-10T19:01:35.159Z,101324.19
2022-10-10T19:04:04.233Z,101331.25
2022-10-10T19:06:32.058Z,101335.56
2022-10-10T19:09:01.585Z,101336.63
2022-10-10T19:11:31.324Z,101345.13
2022-10-10T19:14:00.610Z,101341.44
2022-10-10T19:16:29.125Z,101343.53
2022-10-10T19:18:59.899Z,101349.28
2022-10-10T19:21:28.930Z,101352.72
2022-10-10T19:23:57.201Z,101348.53
2022-10-10T19:26:25.012Z,101353.41
2022-10-10T19:28:52.918Z,101349.00
2022-10-10T19:31:22.424Z,101351.69
2022-10-10T19:33:53.223Z,101347.75
2022-10-10T19:36:22.406Z,101365.72
2022-10-10T19:38:50.555Z,101356.34
2022-10-10T19:41:18.599Z,101354.94
2022-10-10T19:43:49.970Z,101350.84
2022-10-10T19:46:19.501Z,101348.28
2022-10-10T19:48:47.279Z,101356.56
2022-10-10T19:51:16.576Z,101352.34
2022-10-10T19:53:46.671Z,101354.34
2022-10-10T19:56:16.465Z,101361.84
2022-10-10T19:58:44.644Z,101359.13
2022-10-10T20:01:14.800Z,101365.97
2022-10-10T20:03:43.071Z,101376.75
2022-10-10T20:06:11.340Z,101370.34
2022-10-10T20:08:39.572Z,101371.38
2022-10-10T20:11:09.091Z,101379.84
2022-10-10T20:13:37.285Z,101386.31
2022-10-10T20:16:09.579Z,101386.97
2022-10-10T20:18:39.533Z,101385.84
2022-10-10T20:21:15.521Z,101400.03
2022-10-10T20:23:44.792Z,101396.34
2022-10-10T20:26:16.667Z,101406.31
2022-10-10T20:28:45.349Z,101406.44
2022-10-10T20:31:19.918Z,101402.63
2022-10-10T20:33:48.740Z,101405.22
2022-10-10T20:36:17.120Z,101404.03
2022-10-10T20:38:45.164Z,101416.53
2022-10-10T20:41:14.351Z,101425.59
2022-10-10T20:43:42.214Z,101424.06
2022-10-10T20:46:13.575Z,101433.91
2022-10-10T20:48:42.604Z,101439.59
2022-10-10T20:51:12.231Z,101434.88
2022-10-10T20:53:42.393Z,101447.69
2022-10-10T20:56:12.312Z,101455.34
2022-10-10T20:58:41.836Z,101458.91
2022-10-10T21:01:12.073Z,101456.50
2022-10-10T21:03:40.641Z,101460.88
2022-10-10T21:06:11.395Z,101464.06
2022-10-10T21:08:39.731Z,101471.72
2022-10-10T21:11:09.709Z,101482.97
2022-10-10T21:13:40.400Z,101481.50
2022-10-10T21:16:12.864Z,101488.38
2022-10-10T21:18:41.042Z,101484.06
2022-10-10T21:21:09.397Z,101494.53
2022-10-10T21:23:38.870Z,101501.28
2022-10-10T21:26:08.183Z,101501.75
2022-10-10T21:28:36.318Z,101507.91
2022-10-10T21:31:05.267Z,101511.75
2022-10-10T21:33:35.561Z,101520.47
2022-10-10T21:36:03.810Z,101515.69
2022-10-10T21:38:32.320Z,101517.31
2022-10-10T21:41:05.980Z,101526.91
2022-10-10T21:43:34.398Z,101530.47
2022-10-10T21:46:06.232Z,101532.47
2022-10-10T21:48:36.060Z,101544.19
2022-10-10T21:51:04.067Z,101548.28
2022-10-10T21:53:32.250Z,101541.19
2022-10-10T21:56:00.100Z,101550.59
2022-10-10T21:58:27.957Z,101552.53
2022-10-10T22:00:55.851Z,101550.00
2022-10-10T22:03:23.701Z,101566.88
2022-10-10T22:05:52.857Z,101568.41
2022-10-10T22:08:20.662Z,101565.31
2022-10-10T22:10:48.467Z,101567.34
2022-10-10T22:13:16.284Z,101571.50
2022-10-10T22:15:44.434Z,101574.19
2022-10-10T22:18:12.234Z,101564.25
2022-10-10T22:20:40.115Z,101572.28
2022-10-10T22:23:09.341Z,101585.44
2022-10-10T22:25:37.249Z,101587.91
2022-10-10T22:28:06.353Z,101591.81
2022-10-10T22:30:34.408Z,101591.28
2022-10-10T22:33:02.297Z,101588.94
2022-10-10T22:35:30.092Z,101593.59
2022-10-10T22:37:57.905Z,101588.38
2022-10-10T22:40:27.279Z,101591.41
2022-10-10T22:42:55.425Z,101587.69
2022-10-10T22:45:23.973Z,101593.91
2022-10-10T22:47:51.874Z,101593.47
2022-10-10T22:50:19.940Z,101598.41
2022-10-10T22:52:47.860Z,101598.53
2022-10-10T22:55:18.639Z,101601.00
2022-10-10T22:57:48.248Z,101614.53
2022-10-10T23:00:17.263Z,101610.38
2022-10-10T23:02:45.230Z,101625.78
2022-10-10T23:05:13.172Z,101630.09
2022-10-10T23:07:41.017Z,101624.69
2022-10-10T23:10:10.229Z,101630.22
2022-10-10T23:12:38.569Z,101642.19
2022-10-10T23:15:08.809Z,101633.75
2022-10-10T23:17:39.048Z,101641.84
2022-10-10T23:20:08.364Z,101648.78
2022-10-10T23:22:36.460Z,101646.94
2022-10-10T23:25:04.754Z,101662.53
2022-10-10T23:27:32.603Z,101665.56
2022-10-10T23:30:00.484Z,101670.81
2022-10-10T23:32:30.397Z,101670.94
2022-10-10T23:34:58.576Z,101684.16
2022-10-10T23:37:27.951Z,101696.25
2022-10-10T23:39:55.844Z,101692.44
2022-10-10T23:42:23.704Z,101691.72
2022-10-10T23:44:51.588Z,101701.75
2022-10-10T23:47:19.404Z,101712.00
2022-10-10T23:49:48.568Z,101707.97
2022-10-10T23:52:16.584Z,101723.94
2022-10-10T23:54:44.420Z,101729.16
2022-10-10T23:57:12.243Z,101734.53
2022-10-10T23:59:40.139Z,101734.94
